Time;durP1;ratioP1;P1;durP2;ratioP2;P2;SDS_P1;SDS_P2;PMS_P1;PMS_P2;Temp;Humidity;BMP_temperature;BMP_pressure;BME280_temperature;BME280_humidity;BME280_pressure;Samples;Min_cycle;Max_cycle;Signal;HPM_P1;HPM_P2
2023/08/25 00:00:59;;;;;;;3.88;2.35;;;;;;;;;;5044735;28;20180;-74
2023/08/25 00:03:44;;;;;;;5.05;2.42;;;;;;;;;;5043724;28;20045;-74
2023/08/25 00:06:30;;;;;;;5.55;2.63;;;;;;;;;;5044535;28;20380;-74
2023/08/25 00:09:15;;;;;;;4.68;2.25;;;;;;;;;;5060636;28;20021;-68
2023/08/25 00:12:00;;;;;;;5.22;2.30;;;;;;;;;;5045867;28;20352;-75
2023/08/25 00:14:45;;;;;;;5.55;2.47;;;;;;;;;;5047236;28;20043;-75
2023/08/25 00:17:31;;;;;;;3.67;2.20;;;;;;;;;;5047336;28;20060;-75
2023/08/25 00:20:16;;;;;;;4.70;2.13;;;;;;;;;;5046911;28;20044;-76
2023/08/25 00:23:02;;;;;;;6.30;2.63;;;;;;;;;;5051902;28;20075;-76
2023/08/25 00:25:47;;;;;;;4.85;2.22;;;;;;;;;;5059900;28;20064;-78
2023/08/25 00:28:33;;;;;;;3.40;2.05;;;;;;;;;;5045029;28;20594;-79
2023/08/25 00:31:18;;;;;;;5.30;2.75;;;;;;;;;;5045544;28;20109;-83
2023/08/25 00:34:03;;;;;;;4.28;2.28;;;;;;;;;;5040097;28;20037;-81
2023/08/25 00:36:48;;;;;;;3.05;1.95;;;;;;;;;;5047430;28;20039;-79
2023/08/25 00:39:34;;;;;;;3.92;2.22;;;;;;;;;;5046858;28;20037;-80
2023/08/25 00:42:19;;;;;;;6.97;2.95;;;;;;;;;;5042527;28;20056;-80
2023/08/25 00:45:04;;;;;;;7.43;3.30;;;;;;;;;;5046648;28;20039;-73
2023/08/25 00:47:50;;;;;;;6.78;3.20;;;;;;;;;;5033046;28;20064;-75
2023/08/25 00:50:35;;;;;;;4.78;2.13;;;;;;;;;;5046740;28;20039;-76
2023/08/25 00:53:22;;;;;;;7.53;2.30;;;;;;;;;;5049003;28;20540;-76
2023/08/25 00:56:08;;;;;;;2.78;2.05;;;;;;;;;;5049518;28;20037;-77
2023/08/25 00:58:54;;;;;;;5.68;2.50;;;;;;;;;;5050239;28;20067;-76
2023/08/25 01:01:40;;;;;;;2.55;2.00;;;;;;;;;;5050502;28;20035;-77
2023/08/25 01:04:25;;;;;;;3.53;2.20;;;;;;;;;;5063660;28;20138;-74
2023/08/25 01:07:11;;;;;;;7.22;1.73;;;;;;;;;;5024792;28;20029;-69
2023/08/25 01:09:56;;;;;;;5.35;2.10;;;;;;;;;;5064051;28;20033;-69
2023/08/25 01:12:58;;;;;;;6.30;2.35;;;;;;;;;;5048589;28;20029;-68
2023/08/25 01:15:46;;;;;;;2.92;1.50;;;;;;;;;;5047731;28;20033;-68
2023/08/25 01:18:33;;;;;;;2.88;2.35;;;;;;;;;;5050202;28;20384;-70
2023/08/25 01:21:19;;;;;;;5.05;2.25;;;;;;;;;;5050168;28;20036;-73
2023/08/25 01:24:15;;;;;;;3.65;2.17;;;;;;;;;;5033388;28;20087;-73
2023/08/25 01:27:01;;;;;;;4.95;2.30;;;;;;;;;;5049524;28;20076;-73
2023/08/25 01:29:46;;;;;;;5.63;2.20;;;;;;;;;;5040880;28;20033;-74
2023/08/25 01:32:31;;;;;;;5.80;3.08;;;;;;;;;;5049725;28;20479;-73
2023/08/25 01:35:17;;;;;;;4.45;2.25;;;;;;;;;;5049537;28;20021;-75
2023/08/25 01:38:07;;;;;;;5.03;2.30;;;;;;;;;;5049939;28;20376;-72
2023/08/25 01:41:16;;;;;;;2.07;1.73;;;;;;;;;;5047520;28;20537;-76
2023/08/25 01:44:03;;;;;;;5.45;2.75;;;;;;;;;;5044499;28;20306;-72
2023/08/25 01:46:50;;;;;;;2.28;1.80;;;;;;;;;;5040060;28;20040;-73
2023/08/25 01:49:37;;;;;;;8.20;2.67;;;;;;;;;;5046184;28;20435;-73
2023/08/25 01:52:23;;;;;;;6.10;2.10;;;;;;;;;;5045545;28;20500;-73
2023/08/25 01:55:08;;;;;;;6.45;2.47;;;;;;;;;;5046497;28;20088;-72
2023/08/25 01:57:53;;;;;;;6.35;2.38;;;;;;;;;;5044920;28;20025;-69
2023/08/25 02:00:38;;;;;;;6.13;2.30;;;;;;;;;;5035149;28;20380;-75
2023/08/25 02:03:24;;;;;;;3.53;2.30;;;;;;;;;;5036865;28;20643;-74
2023/08/25 02:06:09;;;;;;;3.85;2.38;;;;;;;;;;5048872;28;20339;-75
2023/08/25 02:08:54;;;;;;;5.05;2.00;;;;;;;;;;5049410;28;20040;-75
2023/08/25 02:11:40;;;;;;;8.65;2.00;;;;;;;;;;5033166;28;20036;-75
2023/08/25 02:14:26;;;;;;;4.03;2.10;;;;;;;;;;5048464;28;20606;-75
2023/08/25 02:17:11;;;;;;;3.97;2.00;;;;;;;;;;5033813;28;20040;-73
2023/08/25 02:19:56;;;;;;;7.82;2.72;;;;;;;;;;5040182;28;20032;-74
2023/08/25 02:22:41;;;;;;;5.53;3.33;;;;;;;;;;5058999;28;20090;-73
2023/08/25 02:25:26;;;;;;;5.05;2.78;;;;;;;;;;5039966;28;20105;-73
2023/08/25 02:28:12;;;;;;;3.38;2.13;;;;;;;;;;5048323;28;20033;-75
2023/08/25 02:30:57;;;;;;;7.72;3.45;;;;;;;;;;5048351;28;20052;-74
2023/08/25 02:33:42;;;;;;;5.05;2.33;;;;;;;;;;5048343;28;20476;-72
2023/08/25 02:36:27;;;;;;;5.25;2.10;;;;;;;;;;5047684;28;20047;-68
2023/08/25 02:39:13;;;;;;;4.00;2.22;;;;;;;;;;5048521;28;20025;-75
2023/08/25 02:41:58;;;;;;;3.25;2.20;;;;;;;;;;5046985;28;20272;-74
2023/08/25 02:44:44;;;;;;;5.93;2.47;;;;;;;;;;5035667;28;20375;-75
2023/08/25 02:47:29;;;;;;;7.13;2.70;;;;;;;;;;5048593;28;20272;-75
2023/08/25 02:50:14;;;;;;;3.92;2.00;;;;;;;;;;5062004;28;20037;-74
2023/08/25 02:52:59;;;;;;;5.85;2.33;;;;;;;;;;5048486;28;20036;-81
2023/08/25 02:55:45;;;;;;;2.92;1.60;;;;;;;;;;5046237;28;20025;-73
2023/08/25 02:58:30;;;;;;;4.05;2.55;;;;;;;;;;5051017;28;20094;-72
2023/08/25 03:01:16;;;;;;;4.18;2.53;;;;;;;;;;5046024;28;20028;-72
2023/08/25 03:04:01;;;;;;;3.80;2.63;;;;;;;;;;5048088;28;20028;-72
2023/08/25 03:06:47;;;;;;;9.02;2.65;;;;;;;;;;5061884;28;20036;-72
2023/08/25 03:09:32;;;;;;;7.10;2.47;;;;;;;;;;5048080;28;20495;-71
2023/08/25 03:12:18;;;;;;;5.63;2.42;;;;;;;;;;5046352;28;20121;-73
2023/08/25 03:15:03;;;;;;;6.43;2.20;;;;;;;;;;5046969;28;20480;-74
2023/08/25 03:17:48;;;;;;;2.40;1.90;;;;;;;;;;5046587;28;20419;-77
2023/08/25 03:20:33;;;;;;;5.03;2.50;;;;;;;;;;5047051;28;20071;-77
2023/08/25 03:23:19;;;;;;;8.48;3.03;;;;;;;;;;5047800;28;20499;-76
2023/08/25 03:26:04;;;;;;;4.78;2.70;;;;;;;;;;5035228;28;20096;-75
2023/08/25 03:28:49;;;;;;;6.32;2.53;;;;;;;;;;5041369;28;20115;-75
2023/08/25 03:31:35;;;;;;;3.53;2.05;;;;;;;;;;5047464;28;20124;-79
2023/08/25 03:34:20;;;;;;;4.00;2.10;;;;;;;;;;5048089;28;20097;-72
2023/08/25 03:37:07;;;;;;;7.32;2.55;;;;;;;;;;5047551;28;20488;-72
2023/08/25 03:39:52;;;;;;;6.03;2.80;;;;;;;;;;5047879;28;20120;-72
2023/08/25 03:42:37;;;;;;;4.57;2.35;;;;;;;;;;5046967;28;20039;-72
2023/08/25 03:45:22;;;;;;;4.55;2.15;;;;;;;;;;5061529;28;20123;-72
2023/08/25 03:48:08;;;;;;;5.25;2.28;;;;;;;;;;5047665;28;20446;-75
2023/08/25 03:50:53;;;;;;;5.55;2.50;;;;;;;;;;5047368;28;20040;-77
2023/08/25 03:53:38;;;;;;;3.75;1.85;;;;;;;;;;5061818;28;20065;-69
2023/08/25 03:56:24;;;;;;;7.78;2.50;;;;;;;;;;5059221;28;20024;-68
2023/08/25 03:59:09;;;;;;;5.47;2.45;;;;;;;;;;5047794;28;20036;-68
2023/08/25 04:01:54;;;;;;;6.50;2.33;;;;;;;;;;5047135;28;20048;-69
2023/08/25 04:04:39;;;;;;;8.10;2.97;;;;;;;;;;5047122;28;20041;-70
2023/08/25 04:07:25;;;;;;;6.50;3.28;;;;;;;;;;5047228;28;20039;-78
2023/08/25 04:10:10;;;;;;;5.60;2.22;;;;;;;;;;5032112;28;20021;-76
2023/08/25 04:12:55;;;;;;;3.33;2.05;;;;;;;;;;5047114;28;20551;-74
2023/08/25 04:15:40;;;;;;;6.55;2.38;;;;;;;;;;5047128;28;20127;-74
2023/08/25 04:18:26;;;;;;;6.32;2.00;;;;;;;;;;5047328;28;20103;-76
2023/08/25 04:21:11;;;;;;;4.80;2.55;;;;;;;;;;5047164;28;20018;-75
2023/08/25 04:23:56;;;;;;;4.72;2.17;;;;;;;;;;5042951;28;20041;-74
2023/08/25 04:26:42;;;;;;;4.53;2.40;;;;;;;;;;5044470;28;20259;-69
2023/08/25 04:29:27;;;;;;;4.47;2.28;;;;;;;;;;5051159;28;20418;-76
2023/08/25 04:32:12;;;;;;;6.28;2.72;;;;;;;;;;5050474;28;20068;-76
2023/08/25 04:34:57;;;;;;;8.02;3.20;;;;;;;;;;5050828;28;20112;-77
2023/08/25 04:37:47;;;;;;;6.85;2.67;;;;;;;;;;5050813;28;20037;-75
2023/08/25 04:40:32;;;;;;;7.35;2.63;;;;;;;;;;5048167;28;20506;-77
2023/08/25 04:43:17;;;;;;;2.75;2.25;;;;;;;;;;5050457;28;20388;-73
2023/08/25 04:46:02;;;;;;;9.13;2.70;;;;;;;;;;5050370;28;20041;-74
2023/08/25 04:48:48;;;;;;;7.40;2.42;;;;;;;;;;5050447;28;20117;-77
2023/08/25 04:51:34;;;;;;;7.00;2.50;;;;;;;;;;5050080;28;20082;-76
2023/08/25 04:54:19;;;;;;;5.60;2.70;;;;;;;;;;5046965;28;20247;-76
2023/08/25 04:57:04;;;;;;;5.20;2.58;;;;;;;;;;5063766;28;20052;-76
2023/08/25 04:59:49;;;;;;;6.57;2.38;;;;;;;;;;5050611;28;20032;-76
2023/08/25 05:02:34;;;;;;;7.00;2.67;;;;;;;;;;5047353;28;20040;-72
2023/08/25 05:05:20;;;;;;;9.43;3.47;;;;;;;;;;5049955;28;20503;-73
2023/08/25 05:08:05;;;;;;;4.35;2.50;;;;;;;;;;5063766;28;20495;-73
2023/08/25 05:10:50;;;;;;;5.38;2.70;;;;;;;;;;5048977;28;20029;-76
2023/08/25 05:13:36;;;;;;;6.60;2.85;;;;;;;;;;5049632;28;20484;-75
2023/08/25 05:16:22;;;;;;;5.68;2.75;;;;;;;;;;5063695;28;20124;-74
2023/08/25 05:19:09;;;;;;;8.50;2.88;;;;;;;;;;5050140;28;20033;-73
2023/08/25 05:21:54;;;;;;;5.57;2.92;;;;;;;;;;5049437;28;20036;-68
2023/08/25 05:24:39;;;;;;;10.98;3.58;;;;;;;;;;5044557;28;20096;-77
2023/08/25 05:27:24;;;;;;;7.70;3.05;;;;;;;;;;5049650;28;20154;-77
2023/08/25 05:30:10;;;;;;;5.32;2.95;;;;;;;;;;5050091;28;20125;-77
2023/08/25 05:32:55;;;;;;;5.18;2.90;;;;;;;;;;5047797;28;20039;-77
2023/08/25 05:35:40;;;;;;;6.57;2.95;;;;;;;;;;5049727;28;20116;-76
2023/08/25 05:38:26;;;;;;;6.97;2.70;;;;;;;;;;5045289;28;20040;-70
2023/08/25 05:41:11;;;;;;;7.68;2.60;;;;;;;;;;5062552;28;20033;-78
2023/08/25 05:43:56;;;;;;;7.03;2.75;;;;;;;;;;5050114;28;20024;-78
2023/08/25 05:46:41;;;;;;;9.02;3.28;;;;;;;;;;5049709;28;20080;-77
2023/08/25 05:49:27;;;;;;;5.20;2.97;;;;;;;;;;5049237;28;20039;-79
2023/08/25 05:52:12;;;;;;;5.53;3.05;;;;;;;;;;5063802;28;20261;-79
2023/08/25 05:54:57;;;;;;;6.10;3.08;;;;;;;;;;5037782;28;20124;-78
2023/08/25 05:57:42;;;;;;;5.93;2.97;;;;;;;;;;5048950;28;20036;-68
2023/08/25 06:00:28;;;;;;;5.63;2.75;;;;;;;;;;5049170;28;20040;-77
2023/08/25 06:03:13;;;;;;;5.93;2.67;;;;;;;;;;5049349;28;20498;-78
2023/08/25 06:05:58;;;;;;;6.10;2.70;;;;;;;;;;5057444;28;20051;-80
2023/08/25 06:08:44;;;;;;;9.07;3.70;;;;;;;;;;5037470;28;20032;-77
2023/08/25 06:11:29;;;;;;;6.00;2.45;;;;;;;;;;5046383;28;20480;-78
2023/08/25 06:14:14;;;;;;;6.70;2.42;;;;;;;;;;5055594;28;20036;-80
2023/08/25 06:17:00;;;;;;;5.88;3.17;;;;;;;;;;5045484;28;20443;-72
2023/08/25 06:19:45;;;;;;;6.97;2.88;;;;;;;;;;5048429;28;20063;-69
2023/08/25 06:22:31;;;;;;;5.35;3.38;;;;;;;;;;5048987;28;20113;-69
2023/08/25 06:25:16;;;;;;;6.70;2.90;;;;;;;;;;5033155;28;20535;-69
2023/08/25 06:28:01;;;;;;;10.23;3.28;;;;;;;;;;5034721;28;20033;-69
2023/08/25 06:30:49;;;;;;;7.13;3.72;;;;;;;;;;5037772;28;20028;-69
2023/08/25 06:33:34;;;;;;;6.97;3.00;;;;;;;;;;5047995;28;20037;-77
2023/08/25 06:36:19;;;;;;;4.60;2.67;;;;;;;;;;5062666;28;20538;-76
2023/08/25 06:39:05;;;;;;;8.18;3.50;;;;;;;;;;5047590;28;20431;-69
2023/08/25 06:41:50;;;;;;;6.20;3.08;;;;;;;;;;5048476;28;20403;-69
2023/08/25 06:44:35;;;;;;;8.07;3.22;;;;;;;;;;5022381;28;20028;-69
2023/08/25 06:47:21;;;;;;;4.72;3.17;;;;;;;;;;5048415;28;20380;-69
2023/08/25 06:50:06;;;;;;;6.00;2.58;;;;;;;;;;5061878;28;20033;-68
2023/08/25 06:52:52;;;;;;;5.95;2.95;;;;;;;;;;5047753;28;20040;-75
2023/08/25 06:55:37;;;;;;;4.97;2.65;;;;;;;;;;5027739;28;20037;-72
2023/08/25 06:58:22;;;;;;;5.55;2.70;;;;;;;;;;5059033;28;20064;-72
2023/08/25 07:01:07;;;;;;;7.10;3.50;;;;;;;;;;5048236;28;20032;-73
2023/08/25 07:03:53;;;;;;;6.30;2.83;;;;;;;;;;5048167;28;20040;-71
2023/08/25 07:06:38;;;;;;;4.13;2.65;;;;;;;;;;5048088;28;20043;-72
2023/08/25 07:09:23;;;;;;;6.28;3.45;;;;;;;;;;5047182;28;20040;-71
2023/08/25 07:12:08;;;;;;;4.90;2.88;;;;;;;;;;5046927;28;20483;-77
2023/08/25 07:14:53;;;;;;;5.32;2.75;;;;;;;;;;5048120;28;20029;-75
2023/08/25 07:17:39;;;;;;;7.35;3.22;;;;;;;;;;5054531;28;20033;-76
2023/08/25 07:20:25;;;;;;;3.72;2.70;;;;;;;;;;5047680;28;20480;-77
2023/08/25 07:23:10;;;;;;;5.13;2.88;;;;;;;;;;5060503;28;20091;-76
2023/08/25 07:25:56;;;;;;;5.45;2.65;;;;;;;;;;5038601;28;20033;-76
2023/08/25 07:28:41;;;;;;;5.32;3.10;;;;;;;;;;5059449;28;20557;-75
2023/08/25 07:31:26;;;;;;;5.07;2.42;;;;;;;;;;5047522;28;20045;-73
2023/08/25 07:34:11;;;;;;;8.32;3.38;;;;;;;;;;5047841;28;20090;-73
2023/08/25 07:36:57;;;;;;;4.82;2.38;;;;;;;;;;5047371;28;20074;-72
2023/08/25 07:39:42;;;;;;;4.95;2.65;;;;;;;;;;5047346;28;20132;-72
2023/08/25 07:42:27;;;;;;;6.88;3.42;;;;;;;;;;5047474;28;20108;-73
2023/08/25 07:45:12;;;;;;;5.25;2.97;;;;;;;;;;5061843;28;20098;-73
2023/08/25 07:47:59;;;;;;;4.93;2.60;;;;;;;;;;5061258;28;20163;-68
2023/08/25 07:50:44;;;;;;;5.30;2.83;;;;;;;;;;5046633;28;20037;-78
2023/08/25 07:53:31;;;;;;;9.15;3.10;;;;;;;;;;5037720;28;20080;-78
2023/08/25 07:56:16;;;;;;;7.88;2.90;;;;;;;;;;5045299;28;20111;-76
2023/08/25 07:59:03;;;;;;;7.97;3.50;;;;;;;;;;5047839;28;20442;-77
2023/08/25 08:01:49;;;;;;;5.93;3.00;;;;;;;;;;5045476;28;20464;-77
2023/08/25 08:04:34;;;;;;;7.38;2.95;;;;;;;;;;5062213;28;20037;-78
2023/08/25 08:07:20;;;;;;;6.15;3.17;;;;;;;;;;5050165;28;20388;-72
2023/08/25 08:10:05;;;;;;;4.05;2.65;;;;;;;;;;5049957;28;20028;-66
2023/08/25 08:12:50;;;;;;;7.25;2.85;;;;;;;;;;5044613;28;20044;-68
2023/08/25 08:15:36;;;;;;;5.47;2.35;;;;;;;;;;5050875;28;20048;-68
2023/08/25 08:18:21;;;;;;;5.45;2.35;;;;;;;;;;5051150;28;20065;-68
2023/08/25 08:21:07;;;;;;;4.93;2.67;;;;;;;;;;5051549;28;20045;-66
2023/08/25 08:23:52;;;;;;;5.65;2.50;;;;;;;;;;5058513;28;20098;-68
2023/08/25 08:26:37;;;;;;;7.20;3.63;;;;;;;;;;5050573;28;20447;-74
2023/08/25 08:29:25;;;;;;;5.03;2.50;;;;;;;;;;5049500;28;20040;-74
2023/08/25 08:32:10;;;;;;;9.23;3.30;;;;;;;;;;5064624;28;20046;-74
2023/08/25 08:34:56;;;;;;;5.70;2.92;;;;;;;;;;5036183;28;20091;-72
2023/08/25 08:37:41;;;;;;;7.05;2.53;;;;;;;;;;5049087;28;20074;-74
2023/08/25 08:40:31;;;;;;;8.98;3.30;;;;;;;;;;5049942;28;20044;-73
2023/08/25 08:43:17;;;;;;;6.57;2.70;;;;;;;;;;5053439;28;20021;-74
2023/08/25 08:46:03;;;;;;;6.70;3.45;;;;;;;;;;5049381;28;20173;-72
2023/08/25 08:48:49;;;;;;;6.05;3.03;;;;;;;;;;5049299;28;20424;-72
2023/08/25 08:51:35;;;;;;;7.10;3.28;;;;;;;;;;5038158;28;20041;-71
2023/08/25 08:54:23;;;;;;;5.22;2.80;;;;;;;;;;5049068;28;20029;-73
2023/08/25 08:57:08;;;;;;;9.38;3.22;;;;;;;;;;5064053;28;20048;-72
2023/08/25 08:59:58;;;;;;;10.18;3.10;;;;;;;;;;5064312;28;20048;-71
2023/08/25 09:02:44;;;;;;;7.18;3.28;;;;;;;;;;5049950;28;20044;-69
2023/08/25 09:05:30;;;;;;;6.97;2.60;;;;;;;;;;5050477;28;20061;-76
2023/08/25 09:08:16;;;;;;;7.22;3.35;;;;;;;;;;5050137;28;20032;-75
2023/08/25 09:11:05;;;;;;;7.05;3.05;;;;;;;;;;5049676;28;20115;-74
2023/08/25 09:13:54;;;;;;;8.52;2.85;;;;;;;;;;5041141;28;20033;-76
2023/08/25 09:16:39;;;;;;;5.63;3.13;;;;;;;;;;5047472;28;20496;-76
2023/08/25 09:19:28;;;;;;;6.68;3.00;;;;;;;;;;5049784;28;20037;-77
2023/08/25 09:22:16;;;;;;;7.67;2.67;;;;;;;;;;5049982;28;20037;-68
2023/08/25 09:25:01;;;;;;;6.07;2.72;;;;;;;;;;5045053;28;20499;-70
2023/08/25 09:27:46;;;;;;;8.25;2.65;;;;;;;;;;5035234;28;20031;-69
2023/08/25 09:30:32;;;;;;;6.93;3.10;;;;;;;;;;5049470;28;20044;-71
2023/08/25 09:33:18;;;;;;;6.32;2.83;;;;;;;;;;5049416;28;20459;-68
2023/08/25 09:36:04;;;;;;;5.30;2.85;;;;;;;;;;5049999;28;20094;-67
2023/08/25 09:38:49;;;;;;;4.97;3.00;;;;;;;;;;5049376;28;20094;-73
2023/08/25 09:41:35;;;;;;;8.05;3.25;;;;;;;;;;5049488;28;20041;-77
2023/08/25 09:44:20;;;;;;;4.30;2.65;;;;;;;;;;5063512;28;20418;-77
2023/08/25 09:47:08;;;;;;;9.95;3.33;;;;;;;;;;5063756;28;20110;-77
2023/08/25 09:49:54;;;;;;;7.15;2.97;;;;;;;;;;5049357;28;20111;-77
2023/08/25 09:52:41;;;;;;;5.00;2.90;;;;;;;;;;5049270;28;20106;-77
2023/08/25 09:55:26;;;;;;;5.78;3.08;;;;;;;;;;5048836;28;20072;-77
2023/08/25 09:58:14;;;;;;;6.68;3.22;;;;;;;;;;5021725;28;20408;-67
2023/08/25 10:00:59;;;;;;;4.70;2.88;;;;;;;;;;5049386;28;20335;-71
2023/08/25 10:03:44;;;;;;;4.38;2.60;;;;;;;;;;5049373;28;20124;-73
2023/08/25 10:06:31;;;;;;;5.00;3.00;;;;;;;;;;5049291;28;20119;-73
2023/08/25 10:09:18;;;;;;;7.13;2.80;;;;;;;;;;5048374;28;20040;-71
2023/08/25 10:12:04;;;;;;;5.32;3.38;;;;;;;;;;5042855;28;20399;-71
2023/08/25 10:14:56;;;;;;;6.28;3.58;;;;;;;;;;5048751;28;20033;-67
2023/08/25 10:17:42;;;;;;;5.80;2.85;;;;;;;;;;5055765;28;20070;-76
2023/08/25 10:20:28;;;;;;;5.40;2.95;;;;;;;;;;5049000;28;20029;-77
2023/08/25 10:23:14;;;;;;;2.72;2.17;;;;;;;;;;5047944;28;20036;-76
2023/08/25 10:25:59;;;;;;;7.47;2.65;;;;;;;;;;5038956;28;20504;-76
2023/08/25 10:28:45;;;;;;;3.78;2.42;;;;;;;;;;5048355;28;20041;-77
2023/08/25 10:31:32;;;;;;;6.90;3.10;;;;;;;;;;5043026;28;20040;-76
2023/08/25 10:34:33;;;;;;;6.55;2.60;;;;;;;;;;5048558;28;20029;-68
2023/08/25 10:37:23;;;;;;;6.55;3.17;;;;;;;;;;5049007;28;20130;-76
2023/08/25 10:40:11;;;;;;;;;;;;;;;;;;5047375;28;20086;-77
2023/08/25 10:42:57;;;;;;;4.53;2.50;;;;;;;;;;5034894;28;20375;-78
2023/08/25 10:45:42;;;;;;;4.85;3.00;;;;;;;;;;5039175;28;20040;-76
2023/08/25 10:48:27;;;;;;;5.22;2.95;;;;;;;;;;5048314;28;20021;-77
2023/08/25 10:51:19;;;;;;;5.35;3.22;;;;;;;;;;5048272;28;20116;-76
2023/08/25 10:54:14;;;;;;;3.83;3.13;;;;;;;;;;5047079;28;20048;-69
2023/08/25 10:57:16;;;;;;;3.95;2.55;;;;;;;;;;5048594;28;20041;-73
2023/08/25 11:00:20;;;;;;;5.80;2.80;;;;;;;;;;5044669;28;20467;-72
2023/08/25 11:03:06;;;;;;;6.22;3.13;;;;;;;;;;5048689;28;20036;-71
2023/08/25 11:05:51;;;;;;;5.47;2.65;;;;;;;;;;5055618;28;20475;-72
2023/08/25 11:08:42;;;;;;;5.30;3.08;;;;;;;;;;5061262;28;20120;-72
2023/08/25 11:11:29;;;;;;;8.40;3.35;;;;;;;;;;5048140;28;20035;-74
2023/08/25 11:14:14;;;;;;;5.28;2.70;;;;;;;;;;5047364;28;20040;-70
2023/08/25 11:17:04;;;;;;;4.68;2.65;;;;;;;;;;5048407;28;20087;-71
2023/08/25 11:19:49;;;;;;;4.45;2.80;;;;;;;;;;5047716;28;20442;-71
2023/08/25 11:22:35;;;;;;;5.88;2.50;;;;;;;;;;5046765;28;20049;-71
2023/08/25 11:25:20;;;;;;;4.20;3.08;;;;;;;;;;5029959;28;20197;-72
2023/08/25 11:28:05;;;;;;;6.68;4.22;;;;;;;;;;5037397;28;20072;-77
2023/08/25 11:30:51;;;;;;;4.68;2.95;;;;;;;;;;5033769;28;20060;-74
2023/08/25 11:33:37;;;;;;;6.50;2.90;;;;;;;;;;5033522;28;20376;-77
2023/08/25 11:36:23;;;;;;;5.25;3.38;;;;;;;;;;5038364;28;20098;-75
2023/08/25 11:39:15;;;;;;;7.25;2.95;;;;;;;;;;5046527;28;20108;-75
2023/08/25 11:42:00;;;;;;;6.00;3.38;;;;;;;;;;5047062;28;20059;-73
2023/08/25 11:44:46;;;;;;;5.35;3.25;;;;;;;;;;5045529;28;20044;-74
2023/08/25 11:47:31;;;;;;;5.72;3.22;;;;;;;;;;5047766;28;20043;-76
2023/08/25 11:50:16;;;;;;;6.93;3.40;;;;;;;;;;5047160;28;20033;-78
2023/08/25 11:53:02;;;;;;;6.43;3.05;;;;;;;;;;5030429;28;20095;-77
2023/08/25 11:56:00;;;;;;;4.10;2.90;;;;;;;;;;5017798;28;20468;-76
2023/08/25 11:58:46;;;;;;;5.20;2.63;;;;;;;;;;5033749;28;20492;-76
2023/08/25 12:01:32;;;;;;;5.60;3.72;;;;;;;;;;5034065;28;20033;-76
2023/08/25 12:04:22;;;;;;;6.53;3.20;;;;;;;;;;5033635;28;20106;-77
2023/08/25 12:07:08;;;;;;;5.15;3.22;;;;;;;;;;5046711;28;20043;-72
2023/08/25 12:09:54;;;;;;;5.65;3.33;;;;;;;;;;5030387;28;20033;-79
2023/08/25 12:12:40;;;;;;;5.03;3.00;;;;;;;;;;5032788;28;20044;-79
2023/08/25 12:15:25;;;;;;;7.82;3.75;;;;;;;;;;5034118;28;20039;-79
2023/08/25 12:18:14;;;;;;;5.75;3.35;;;;;;;;;;5033814;28;20116;-79
2023/08/25 12:21:00;;;;;;;6.47;3.10;;;;;;;;;;5033443;28;20535;-78
2023/08/25 12:23:46;;;;;;;6.80;3.85;;;;;;;;;;5030237;28;20425;-71
2023/08/25 12:26:31;;;;;;;5.10;3.65;;;;;;;;;;5046883;28;20535;-68
2023/08/25 12:29:16;;;;;;;4.07;2.95;;;;;;;;;;5040092;28;20025;-69
2023/08/25 12:32:04;;;;;;;5.28;3.30;;;;;;;;;;5047236;28;20036;-67
2023/08/25 12:34:49;;;;;;;7.22;4.07;;;;;;;;;;5033271;28;20037;-69
2023/08/25 12:37:34;;;;;;;4.93;3.13;;;;;;;;;;5021970;28;20078;-68
2023/08/25 12:40:20;;;;;;;5.03;3.38;;;;;;;;;;5046834;28;20046;-69
2023/08/25 12:43:05;;;;;;;5.82;3.70;;;;;;;;;;5033290;28;20032;-69
2023/08/25 12:45:50;;;;;;;6.30;3.45;;;;;;;;;;5046921;28;20044;-73
2023/08/25 12:48:36;;;;;;;6.20;4.07;;;;;;;;;;5031471;28;20332;-73
2023/08/25 12:51:21;;;;;;;6.20;3.80;;;;;;;;;;5041774;28;20120;-74
2023/08/25 12:54:13;;;;;;;6.05;3.47;;;;;;;;;;5036777;28;20057;-73
2023/08/25 12:56:58;;;;;;;7.90;3.38;;;;;;;;;;5020016;28;20045;-75
2023/08/25 12:59:43;;;;;;;8.82;3.45;;;;;;;;;;5049393;28;20068;-73
2023/08/25 13:02:29;;;;;;;5.72;3.70;;;;;;;;;;5050190;28;20372;-73
2023/08/25 13:05:14;;;;;;;8.15;3.40;;;;;;;;;;5035890;28;20065;-76
2023/08/25 13:07:59;;;;;;;9.50;3.90;;;;;;;;;;5028048;28;20074;-77
2023/08/25 13:10:45;;;;;;;5.85;3.55;;;;;;;;;;5022977;28;20038;-76
2023/08/25 13:13:30;;;;;;;6.70;3.70;;;;;;;;;;5036224;28;20553;-77
2023/08/25 13:16:15;;;;;;;4.10;3.03;;;;;;;;;;5035328;28;20037;-78
2023/08/25 13:19:00;;;;;;;6.93;3.40;;;;;;;;;;5039100;28;20045;-69
2023/08/25 13:21:45;;;;;;;7.80;3.88;;;;;;;;;;5033026;28;20527;-68
2023/08/25 13:24:31;;;;;;;5.03;3.50;;;;;;;;;;5043056;28;20260;-68
2023/08/25 13:27:16;;;;;;;7.75;3.70;;;;;;;;;;5014126;28;20072;-68
2023/08/25 13:30:01;;;;;;;8.02;4.30;;;;;;;;;;5032289;28;20025;-69
2023/08/25 13:32:47;;;;;;;7.70;3.50;;;;;;;;;;5035754;28;20037;-68
2023/08/25 13:35:32;;;;;;;6.65;3.70;;;;;;;;;;5035184;28;20064;-68
2023/08/25 13:38:17;;;;;;;7.38;3.42;;;;;;;;;;5048120;28;20476;-78
2023/08/25 13:41:03;;;;;;;8.90;3.85;;;;;;;;;;5035499;28;20047;-76
2023/08/25 13:43:48;;;;;;;8.93;3.90;;;;;;;;;;5036633;28;20029;-76
2023/08/25 13:46:33;;;;;;;7.15;3.92;;;;;;;;;;5035826;28;20048;-75
2023/08/25 13:49:18;;;;;;;8.52;4.30;;;;;;;;;;5049498;28;20116;-75
2023/08/25 13:52:04;;;;;;;5.47;3.30;;;;;;;;;;5048290;28;20029;-76
2023/08/25 13:54:49;;;;;;;7.18;4.22;;;;;;;;;;5021659;28;20531;-76
2023/08/25 13:57:37;;;;;;;5.32;3.17;;;;;;;;;;5049499;28;20041;-77
2023/08/25 14:00:23;;;;;;;5.83;3.30;;;;;;;;;;5028167;28;20489;-72
2023/08/25 14:03:08;;;;;;;4.95;3.40;;;;;;;;;;5048144;28;20030;-72
2023/08/25 14:05:54;;;;;;;9.15;3.65;;;;;;;;;;5035327;28;20033;-71
2023/08/25 14:08:39;;;;;;;8.02;3.80;;;;;;;;;;5020152;28;20032;-70
2023/08/25 14:11:24;;;;;;;9.10;3.90;;;;;;;;;;5033750;28;20079;-70
2023/08/25 14:14:10;;;;;;;5.15;3.38;;;;;;;;;;5033792;28;20080;-72
2023/08/25 14:16:55;;;;;;;8.50;3.83;;;;;;;;;;5032705;28;20285;-77
2023/08/25 14:19:40;;;;;;;6.63;3.85;;;;;;;;;;5034989;28;20060;-76
2023/08/25 14:22:25;;;;;;;5.82;3.85;;;;;;;;;;5046902;28;20414;-77
2023/08/25 14:25:10;;;;;;;5.57;3.00;;;;;;;;;;5038240;28;20048;-78
2023/08/25 14:27:56;;;;;;;4.97;3.03;;;;;;;;;;5032849;28;20029;-77
2023/08/25 14:30:41;;;;;;;5.32;3.08;;;;;;;;;;5021764;28;20063;-77
2023/08/25 14:33:27;;;;;;;6.30;3.83;;;;;;;;;;5035073;28;20119;-71
2023/08/25 14:36:13;;;;;;;4.90;2.83;;;;;;;;;;5033562;28;20040;-70
2023/08/25 14:38:59;;;;;;;6.05;3.72;;;;;;;;;;5034915;28;20037;-71
2023/08/25 14:41:44;;;;;;;5.43;3.75;;;;;;;;;;5034540;28;20036;-68
2023/08/25 14:44:29;;;;;;;4.95;3.40;;;;;;;;;;5034448;28;20036;-69
2023/08/25 14:47:14;;;;;;;5.18;3.05;;;;;;;;;;5042571;28;20376;-68
2023/08/25 14:50:00;;;;;;;5.22;3.70;;;;;;;;;;5030383;28;20033;-69
2023/08/25 14:52:45;;;;;;;4.43;3.22;;;;;;;;;;5027196;28;20037;-72
2023/08/25 14:55:30;;;;;;;6.38;3.33;;;;;;;;;;5031887;28;20032;-76
2023/08/25 14:58:16;;;;;;;8.35;3.22;;;;;;;;;;5045690;28;20037;-77
2023/08/25 15:01:01;;;;;;;4.60;3.20;;;;;;;;;;5032629;28;20053;-76
2023/08/25 15:03:46;;;;;;;5.32;3.45;;;;;;;;;;5031576;28;20040;-80
2023/08/25 15:06:31;;;;;;;6.68;3.10;;;;;;;;;;5030021;28;20100;-77
2023/08/25 15:09:17;;;;;;;6.35;4.28;;;;;;;;;;5046027;28;20043;-74
2023/08/25 15:12:02;;;;;;;4.57;3.40;;;;;;;;;;5039267;28;20167;-73
2023/08/25 15:14:49;;;;;;;6.10;3.58;;;;;;;;;;5033542;28;20488;-72
2023/08/25 15:17:34;;;;;;;5.20;3.25;;;;;;;;;;5016889;28;20033;-75
2023/08/25 15:20:19;;;;;;;7.78;3.55;;;;;;;;;;5033336;28;20031;-73
2023/08/25 15:23:06;;;;;;;7.45;4.22;;;;;;;;;;5044552;28;20496;-71
2023/08/25 15:25:52;;;;;;;9.80;3.53;;;;;;;;;;5031355;28;20025;-71
2023/08/25 15:28:37;;;;;;;5.10;3.42;;;;;;;;;;5031521;28;20035;-74
2023/08/25 15:31:22;;;;;;;5.88;3.30;;;;;;;;;;5031381;28;20045;-79
2023/08/25 15:34:08;;;;;;;7.97;3.80;;;;;;;;;;5033058;28;20192;-81
2023/08/25 15:36:53;;;;;;;7.70;4.07;;;;;;;;;;5032220;28;20127;-80
2023/08/25 15:39:38;;;;;;;8.63;3.97;;;;;;;;;;5034204;28;20071;-80
2023/08/25 15:42:23;;;;;;;5.65;4.13;;;;;;;;;;5034592;28;20490;-82
2023/08/25 15:45:09;;;;;;;6.80;3.50;;;;;;;;;;5031780;28;20061;-80
2023/08/25 15:47:55;;;;;;;6.93;4.40;;;;;;;;;;5032227;28;20028;-77
2023/08/25 15:50:44;;;;;;;6.55;3.80;;;;;;;;;;5059589;28;20068;-72
2023/08/25 15:53:29;;;;;;;6.13;3.45;;;;;;;;;;5027307;28;20507;-71
2023/08/25 15:56:14;;;;;;;5.72;3.75;;;;;;;;;;5021219;28;20029;-72
2023/08/25 15:58:59;;;;;;;6.10;3.58;;;;;;;;;;5061097;28;20490;-71
2023/08/25 16:01:45;;;;;;;8.90;4.18;;;;;;;;;;5030352;28;20147;-72
2023/08/25 16:04:30;;;;;;;7.47;4.82;;;;;;;;;;5029320;28;20098;-79
2023/08/25 16:07:15;;;;;;;6.60;3.80;;;;;;;;;;5028447;28;20037;-70
2023/08/25 16:10:00;;;;;;;5.95;3.40;;;;;;;;;;5011665;28;20026;-72
2023/08/25 16:12:47;;;;;;;6.43;3.00;;;;;;;;;;5012755;28;20575;-70
2023/08/25 16:15:36;;;;;;;6.53;3.88;;;;;;;;;;5033621;28;20033;-72
2023/08/25 16:18:22;;;;;;;5.72;3.45;;;;;;;;;;5031404;28;20120;-70
2023/08/25 16:21:07;;;;;;;6.57;3.17;;;;;;;;;;5046349;28;20053;-71
2023/08/25 16:23:52;;;;;;;5.38;3.42;;;;;;;;;;5018685;28;20048;-82
2023/08/25 16:26:38;;;;;;;6.82;4.00;;;;;;;;;;5042484;28;20453;-71
2023/08/25 16:29:23;;;;;;;7.15;3.85;;;;;;;;;;5010095;28;20508;-71
2023/08/25 16:32:08;;;;;;;8.23;3.55;;;;;;;;;;5040278;28;20379;-73
2023/08/25 16:34:53;;;;;;;6.40;3.30;;;;;;;;;;5034405;28;20068;-73